Time;durP1;ratioP1;P1;durP2;ratioP2;P2;SDS_P1;SDS_P2;PMS_P1;PMS_P2;Temp;Humidity;BMP_temperature;BMP_pressure;BME280_temperature;BME280_humidity;BME280_pressure;Samples;Min_cycle;Max_cycle;Signal;HPM_P1;HPM_P2
2023/09/27 00:00:10;;;;;;;;;;;;;;;20.15;62.38;95392.69;5117897;27;1209;-58
2023/09/27 00:02:56;;;;;;;;;;;;;;;20.17;61.34;95390.56;5117435;28;1512;-58
2023/09/27 00:05:41;;;;;;;;;;;;;;;20.11;60.79;95397.69;5116976;28;1995;-58
2023/09/27 00:08:07;;;;;;;;;;;;;;;20.07;60.43;95389.16;5117075;28;1040;-57
2023/09/27 00:10:33;;;;;;;;;;;;;;;20.13;61.60;95392.03;5117019;28;967;-58
2023/09/27 00:12:59;;;;;;;;;;;;;;;20.13;60.37;95375.75;5116902;28;1111;-57
2023/09/27 00:15:25;;;;;;;;;;;;;;;20.01;60.13;95384.56;5117038;28;976;-58
2023/09/27 00:17:52;;;;;;;;;;;;;;;19.90;60.99;95382.53;5116913;28;1036;-57
2023/09/27 00:20:19;;;;;;;;;;;;;;;19.66;62.39;95382.13;5116956;28;1063;-57
2023/09/27 00:22:45;;;;;;;;;;;;;;;19.65;61.98;95385.06;5116932;28;968;-58
2023/09/27 00:25:12;;;;;;;;;;;;;;;19.69;61.78;95387.16;5116567;28;1914;-58
2023/09/27 00:27:38;;;;;;;;;;;;;;;19.69;61.47;95387.16;5116925;28;965;-57
2023/09/27 00:30:07;;;;;;;;;;;;;;;19.67;60.87;95381.09;5116929;28;1052;-57
2023/09/27 00:32:33;;;;;;;;;;;;;;;19.86;60.07;95378.56;5116038;28;996;-58
2023/09/27 00:35:00;;;;;;;;;;;;;;;19.93;59.15;95368.53;5116829;28;1063;-58
2023/09/27 00:37:27;;;;;;;;;;;;;;;19.85;59.11;95377.72;5116526;28;995;-57
2023/09/27 00:39:53;;;;;;;;;;;;;;;19.82;59.60;95378.16;5116440;28;1056;-57
2023/09/27 00:42:18;;;;;;;;;;;;;;;19.86;59.24;95376.69;5116253;28;1040;-58
2023/09/27 00:44:44;;;;;;;;;;;;;;;19.79;60.07;95375.88;5116299;28;2000;-57
2023/09/27 00:47:10;;;;;;;;;;;;;;;19.80;59.95;95365.84;5116247;28;1122;-57
2023/09/27 00:49:37;;;;;;;;;;;;;;;19.76;60.21;95373.59;5116556;28;1113;-57
2023/09/27 00:52:04;;;;;;;;;;;;;;;19.72;59.87;95369.63;5116508;28;1103;-58
2023/09/27 00:54:30;;;;;;;;;;;;;;;19.66;60.26;95373.16;5116151;28;972;-57
2023/09/27 00:56:56;;;;;;;;;;;;;;;19.74;59.22;95377.56;5116080;28;1044;-57
2023/09/27 00:59:23;;;;;;;;;;;;;;;19.81;59.21;95384.63;5129438;27;1847;-57
2023/09/27 01:01:48;;;;;;;;;;;;;;;19.93;59.00;95376.66;5136907;27;1073;-58
2023/09/27 01:04:16;;;;;;;;;;;;;;;19.94;59.29;95381.06;5136715;27;1992;-56
2023/09/27 01:06:43;;;;;;;;;;;;;;;19.69;59.89;95378.16;5136376;27;1214;-58
2023/09/27 01:09:11;;;;;;;;;;;;;;;19.63;60.94;95368.16;5136757;27;1048;-57
2023/09/27 01:11:38;;;;;;;;;;;;;;;19.88;59.64;95376.47;5136323;27;1035;-57
2023/09/27 01:14:04;;;;;;;;;;;;;;;19.88;59.80;95379.16;5136366;27;1079;-57
2023/09/27 01:16:30;;;;;;;;;;;;;;;19.86;59.49;95378.56;5136437;27;1004;-57
2023/09/27 01:19:02;;;;;;;;;;;;;;;19.67;60.82;95383.81;5136292;27;1086;-58
2023/09/27 01:21:28;;;;;;;;;;;;;;;19.53;60.48;95376.75;5136159;27;1090;-57
2023/09/27 01:23:55;;;;;;;;;;;;;;;19.55;60.63;95373.81;5136471;27;965;-58
2023/09/27 01:26:21;;;;;;;;;;;;;;;19.57;60.14;95366.31;5135865;27;1894;-58
2023/09/27 01:28:47;;;;;;;;;;;;;;;19.49;60.70;95378.22;5136362;27;949;-58
2023/09/27 01:31:13;;;;;;;;;;;;;;;19.50;60.47;95379.84;5136260;27;1054;-58
2023/09/27 01:33:39;;;;;;;;;;;;;;;19.58;60.06;95382.38;5136094;27;958;-58
2023/09/27 01:36:06;;;;;;;;;;;;;;;19.57;61.38;95366.31;5136053;27;1031;-58
2023/09/27 01:38:33;;;;;;;;;;;;;;;19.53;60.04;95382.16;5135815;27;1039;-58
2023/09/27 01:40:59;;;;;;;;;;;;;;;19.50;61.06;95388.84;5135841;27;988;-58
2023/09/27 01:43:25;;;;;;;;;;;;;;;19.46;60.21;95376.75;5135621;27;1252;-59
2023/09/27 01:45:51;;;;;;;;;;;;;;;19.27;61.23;95377.59;5134991;27;1905;-58
2023/09/27 01:48:19;;;;;;;;;;;;;;;19.14;62.51;95381.13;5135778;27;971;-58
2023/09/27 01:50:45;;;;;;;;;;;;;;;19.33;62.05;95373.22;5135945;27;969;-58
2023/09/27 01:53:11;;;;;;;;;;;;;;;19.33;61.49;95373.22;5135831;27;1015;-58
2023/09/27 01:55:37;;;;;;;;;;;;;;;19.30;61.67;95369.88;5135748;27;969;-58
2023/09/27 01:58:03;;;;;;;;;;;;;;;19.26;61.98;95379.47;5133435;27;1215;-58
2023/09/27 02:00:29;;;;;;;;;;;;;;;19.27;61.96;95381.16;5114978;28;980;-57
2023/09/27 02:02:56;;;;;;;;;;;;;;;19.23;61.83;95379.88;5114993;28;995;-58
2023/09/27 02:05:22;;;;;;;;;;;;;;;19.15;63.24;95380.13;5114563;28;1906;-59
2023/09/27 02:07:48;;;;;;;;;;;;;;;19.16;62.99;95376.38;5115045;28;1035;-58
2023/09/27 02:10:14;;;;;;;;;;;;;;;19.09;63.49;95375.53;5114546;28;1115;-58
2023/09/27 02:12:40;;;;;;;;;;;;;;;19.08;63.90;95368.44;5114650;28;1045;-58
2023/09/27 02:15:07;;;;;;;;;;;;;;;19.12;63.65;95375.09;5114787;28;1024;-58
2023/09/27 02:17:35;;;;;;;;;;;;;;;19.13;64.48;95376.78;5114574;28;961;-57
2023/09/27 02:20:05;;;;;;;;;;;;;;;19.22;63.31;95372.00;5114848;28;1083;-58
2023/09/27 02:22:31;;;;;;;;;;;;;;;19.22;64.05;95364.69;5114461;28;1014;-59
2023/09/27 02:24:57;;;;;;;;;;;;;;;19.27;63.03;95373.03;5114369;28;1933;-59
2023/09/27 02:27:23;;;;;;;;;;;;;;;19.14;63.08;95372.19;5114250;28;1317;-57
2023/09/27 02:29:49;;;;;;;;;;;;;;;19.12;63.58;95369.69;5114354;28;921;-58
2023/09/27 02:32:16;;;;;;;;;;;;;;;19.15;63.75;95371.97;5114354;28;956;-58
2023/09/27 02:34:42;;;;;;;;;;;;;;;19.03;63.88;95369.06;5114241;28;1037;-58
2023/09/27 02:37:08;;;;;;;;;;;;;;;19.09;64.09;95375.53;5114221;28;1269;-57
2023/09/27 02:39:34;;;;;;;;;;;;;;;19.13;62.82;95371.34;5113987;28;1052;-57
2023/09/27 02:42:00;;;;;;;;;;;;;;;19.12;63.19;95366.97;5114464;28;973;-57
2023/09/27 02:44:26;;;;;;;;;;;;;;;18.99;64.01;95375.09;5114134;28;1907;-57
2023/09/27 02:46:53;;;;;;;;;;;;;;;18.98;63.36;95374.28;5114085;28;1103;-57
2023/09/27 02:49:20;;;;;;;;;;;;;;;19.02;63.17;95380.13;5113945;28;1030;-57
2023/09/27 02:51:48;;;;;;;;;;;;;;;18.89;63.66;95381.78;5113976;28;1029;-57
2023/09/27 02:54:14;;;;;;;;;;;;;;;18.85;63.38;95390.53;5114159;28;999;-57
2023/09/27 02:56:43;;;;;;;;;;;;;;;18.91;63.54;95392.41;5113860;28;1056;-57
2023/09/27 02:59:10;;;;;;;;;;;;;;;18.95;62.57;95390.09;5125391;27;1324;-57
2023/09/27 03:01:43;;;;;;;;;;;;;;;18.96;62.87;95389.91;5134514;27;980;-57
2023/09/27 03:04:11;;;;;;;;;;;;;;;18.98;62.55;95395.13;5134550;27;918;-57
2023/09/27 03:06:37;;;;;;;;;;;;;;;19.01;62.59;95384.72;5134084;27;1922;-57
2023/09/27 03:09:05;;;;;;;;;;;;;;;18.99;62.72;95394.06;5134343;27;1218;-57
2023/09/27 03:11:33;;;;;;;;;;;;;;;18.99;62.60;95397.63;5134368;28;1045;-57
2023/09/27 03:13:59;;;;;;;;;;;;;;;19.08;62.25;95390.13;5134557;28;1003;-57
2023/09/27 03:16:25;;;;;;;;;;;;;;;19.03;61.37;95400.75;5134474;28;979;-57
2023/09/27 03:18:51;;;;;;;;;;;;;;;18.97;61.91;95397.00;5134224;28;1032;-57
2023/09/27 03:21:17;;;;;;;;;;;;;;;18.92;62.39;95397.63;5134368;28;1004;-58
2023/09/27 03:23:43;;;;;;;;;;;;;;;18.98;61.46;95395.13;5134501;28;1019;-58
2023/09/27 03:26:09;;;;;;;;;;;;;;;18.97;61.18;95405.13;5134076;28;1901;-58
2023/09/27 03:28:35;;;;;;;;;;;;;;;18.78;62.54;95406.75;5134452;28;1084;-58
2023/09/27 03:31:02;;;;;;;;;;;;;;;18.85;62.17;95396.75;5134277;28;1036;-58
2023/09/27 03:33:28;;;;;;;;;;;;;;;18.83;62.46;95398.03;5134034;28;1036;-58
2023/09/27 03:35:54;;;;;;;;;;;;;;;18.86;62.42;95405.75;5134365;28;961;-58
2023/09/27 03:38:20;;;;;;;;;;;;;;;18.96;61.54;95402.63;5134224;28;1051;-58
2023/09/27 03:40:48;;;;;;;;;;;;;;;19.03;61.68;95408.91;5134252;28;1051;-58
2023/09/27 03:43:14;;;;;;;;;;;;;;;18.94;62.03;95410.13;5133958;28;1024;-59
2023/09/27 03:45:40;;;;;;;;;;;;;;;18.84;61.44;95408.66;5134243;28;1901;-58
2023/09/27 03:48:06;;;;;;;;;;;;;;;18.86;61.37;95405.75;5134265;28;965;-58
2023/09/27 03:50:32;;;;;;;;;;;;;;;18.78;61.34;95401.34;5133698;28;1110;-58
2023/09/27 03:52:59;;;;;;;;;;;;;;;18.73;61.62;95407.34;5133924;28;1098;-58
2023/09/27 03:55:25;;;;;;;;;;;;;;;18.66;62.06;95414.63;5115907;28;1029;-58
2023/09/27 03:57:54;;;;;;;;;;;;;;;18.62;62.19;95407.13;5133359;28;1156;-58
2023/09/27 04:00:20;;;;;;;;;;;;;;;18.54;63.20;95403.56;5113578;28;1044;-58
2023/09/27 04:02:46;;;;;;;;;;;;;;;18.54;62.85;95411.69;5113274;28;1110;-57
2023/09/27 04:05:13;;;;;;;;;;;;;;;18.62;62.56;95407.94;5112899;28;1987;-57
2023/09/27 04:07:40;;;;;;;;;;;;;;;18.76;61.67;95408.81;5114018;28;1033;-57
2023/09/27 04:10:09;;;;;;;;;;;;;;;18.68;62.23;95412.53;5117401;28;1043;-57
2023/09/27 04:12:36;;;;;;;;;;;;;;;18.60;62.46;95414.63;5117193;28;995;-57
2023/09/27 04:15:06;;;;;;;;;;;;;;;18.54;63.37;95411.69;5117048;28;1012;-57
2023/09/27 04:17:32;;;;;;;;;;;;;;;18.60;64.76;95409.22;5116843;28;1016;-57
2023/09/27 04:19:58;;;;;;;;;;;;;;;18.64;62.47;95415.88;5117228;28;999;-57
2023/09/27 04:22:24;;;;;;;;;;;;;;;18.64;62.74;95421.28;5116955;28;972;-56
2023/09/27 04:24:50;;;;;;;;;;;;;;;18.62;62.55;95415.25;5116922;28;1878;-57
2023/09/27 04:27:16;;;;;;;;;;;;;;;18.63;62.94;95425.03;5116831;28;999;-56
2023/09/27 04:29:42;;;;;;;;;;;;;;;18.70;62.25;95431.28;5116661;28;1096;-57
2023/09/27 04:32:09;;;;;;;;;;;;;;;18.56;63.25;95418.78;5116620;28;1200;-57
2023/09/27 04:34:35;;;;;;;;;;;;;;;18.39;64.60;95438.09;5116569;28;1008;-57
2023/09/27 04:37:02;;;;;;;;;;;;;;;18.36;64.29;95435.78;5116583;28;1095;-56
2023/09/27 04:39:31;;;;;;;;;;;;;;;18.49;64.25;95438.53;5116411;28;1059;-56
2023/09/27 04:41:57;;;;;;;;;;;;;;;18.54;64.46;95440.66;5116575;28;1048;-56
2023/09/27 04:44:23;;;;;;;;;;;;;;;18.74;62.95;95437.97;5116290;28;1901;-56
2023/09/27 04:46:50;;;;;;;;;;;;;;;18.81;63.53;95444.28;5116573;28;968;-56
2023/09/27 04:49:16;;;;;;;;;;;;;;;18.88;62.88;95445.13;5121806;27;2486;-56
2023/09/27 04:51:42;;;;;;;;;;;;;;;18.70;64.39;95439.41;5137089;27;1025;-56
2023/09/27 04:54:08;;;;;;;;;;;;;;;18.61;64.07;95427.97;5137082;27;1048;-56
2023/09/27 04:56:34;;;;;;;;;;;;;;;18.62;64.25;95437.75;5136612;27;1115;-56
2023/09/27 04:59:05;;;;;;;;;;;;;;;18.65;63.94;95434.63;5136710;27;1157;-56
2023/09/27 05:01:31;;;;;;;;;;;;;;;18.67;64.71;95435.25;5136843;27;981;-57
2023/09/27 05:03:57;;;;;;;;;;;;;;;18.75;66.09;95450.50;5136622;27;1040;-57
2023/09/27 05:06:23;;;;;;;;;;;;;;;18.87;63.89;95443.44;5136276;27;1906;-57
2023/09/27 05:08:50;;;;;;;;;;;;;;;18.81;64.41;95449.69;5136499;27;1047;-57
2023/09/27 05:11:18;;;;;;;;;;;;;;;18.88;64.21;95455.13;5136647;27;996;-56
2023/09/27 05:13:45;;;;;;;;;;;;;;;18.89;63.56;95448.66;5136379;27;1056;-57
2023/09/27 05:16:11;;;;;;;;;;;;;;;18.92;63.73;95448.25;5136181;27;941;-56
2023/09/27 05:18:38;;;;;;;;;;;;;;;18.90;64.15;95456.59;5136311;27;973;-57
2023/09/27 05:21:05;;;;;;;;;;;;;;;18.91;64.80;95447.44;5136247;27;1091;-57
2023/09/27 05:23:31;;;;;;;;;;;;;;;19.03;63.58;95457.66;5136322;27;988;-56
2023/09/27 05:25:57;;;;;;;;;;;;;;;19.06;63.13;95460.78;5136267;27;1909;-56
2023/09/27 05:28:23;;;;;;;;;;;;;;;19.04;63.82;95462.03;5136031;27;1020;-57
2023/09/27 05:30:49;;;;;;;;;;;;;;;19.07;63.98;95456.22;5136026;27;1031;-57
2023/09/27 05:33:17;;;;;;;;;;;;;;;19.04;64.30;95456.63;5136255;27;960;-57
2023/09/27 05:35:43;;;;;;;;;;;;;;;19.03;64.33;95458.50;5136136;27;1039;-57
2023/09/27 05:38:09;;;;;;;;;;;;;;;19.15;63.71;95449.75;5135872;27;1035;-57
2023/09/27 05:40:35;;;;;;;;;;;;;;;19.28;63.65;95450.59;5135974;27;1048;-57
2023/09/27 05:43:02;;;;;;;;;;;;;;;19.44;63.10;95459.34;5136279;27;1179;-57
2023/09/27 05:45:28;;;;;;;;;;;;;;;19.98;62.32;95466.41;5135823;27;1991;-57
2023/09/27 05:47:54;;;;;;;;;;;;;;;20.75;59.05;95471.19;5136016;27;966;-57
2023/09/27 05:50:20;;;;;;;;;;;;;;;21.75;55.96;95474.06;5117218;27;1365;-57
2023/09/27 05:52:46;;;;;;;;;;;;;;;22.31;54.33;95475.00;5135781;27;992;-57
2023/09/27 05:55:14;;;;;;;;;;;;;;;22.87;52.30;95472.22;5135480;27;1012;-56
2023/09/27 05:57:40;;;;;;;;;;;;;;;23.27;51.28;95468.94;5135675;27;995;-57
2023/09/27 06:00:15;;;;;;;;;;;;;;;23.43;51.20;95478.34;5135647;27;1169;-57
2023/09/27 06:02:41;;;;;;;;;;;;;;;22.82;52.33;95472.91;5135678;27;1067;-56
2023/09/27 06:05:07;;;;;;;;;;;;;;;22.41;54.04;95474.47;5135306;27;1994;-57
2023/09/27 06:07:33;;;;;;;;;;;;;;;21.85;55.43;95465.38;5135538;27;1029;-57
2023/09/27 06:09:59;;;;;;;;;;;;;;;21.62;56.58;95479.63;5135562;27;1048;-56
2023/09/27 06:12:25;;;;;;;;;;;;;;;21.74;55.88;95471.56;5135195;27;957;-57
2023/09/27 06:14:51;;;;;;;;;;;;;;;21.67;57.49;95470.81;5135141;27;1071;-57
2023/09/27 06:17:17;;;;;;;;;;;;;;;21.64;57.22;95472.91;5135210;27;1064;-57
2023/09/27 06:19:44;;;;;;;;;;;;;;;21.80;56.83;95485.13;5135412;27;1015;-57
2023/09/27 06:22:13;;;;;;;;;;;;;;;21.91;55.98;95480.84;5135298;27;1004;-57
2023/09/27 06:24:40;;;;;;;;;;;;;;;22.07;56.58;95489.47;5135025;27;1909;-57
2023/09/27 06:27:06;;;;;;;;;;;;;;;22.30;55.63;95481.50;5135249;27;956;-57
2023/09/27 06:29:33;;;;;;;;;;;;;;;22.49;54.29;95492.41;5134790;27;1091;-57
2023/09/27 06:31:59;;;;;;;;;;;;;;;22.41;54.60;95505.25;5134537;27;1048;-57
2023/09/27 06:34:26;;;;;;;;;;;;;;;22.33;55.18;95500.13;5116320;27;1247;-56
2023/09/27 06:36:56;;;;;;;;;;;;;;;22.41;56.34;95502.53;5135066;27;1024;-56
2023/09/27 06:39:24;;;;;;;;;;;;;;;22.22;56.53;95506.28;5134724;27;1091;-56
2023/09/27 06:41:51;;;;;;;;;;;;;;;22.30;55.23;95500.56;5134633;27;970;-57
2023/09/27 06:44:18;;;;;;;;;;;;;;;22.33;55.04;95493.81;5134820;27;975;-57
2023/09/27 06:46:45;;;;;;;;;;;;;;;22.21;55.75;95491.00;5134585;27;1978;-57
2023/09/27 06:49:12;;;;;;;;;;;;;;;22.35;56.13;95500.72;5134927;27;1045;-56
2023/09/27 06:51:38;;;;;;;;;;;;;;;22.55;54.58;95495.03;5134537;27;1140;-57
2023/09/27 06:54:05;;;;;;;;;;;;;;;22.57;54.59;95505.72;5134813;27;965;-57
2023/09/27 06:56:31;;;;;;;;;;;;;;;22.58;53.95;95507.38;5134558;27;1007;-56
2023/09/27 06:58:58;;;;;;;;;;;;;;;22.76;54.19;95510.06;5132999;27;2510;-55
2023/09/27 07:01:24;;;;;;;;;;;;;;;22.78;53.12;95510.72;5134524;27;1070;-55
2023/09/27 07:03:51;;;;;;;;;;;;;;;22.74;55.17;95506.75;5134271;27;965;-56
2023/09/27 07:06:17;;;;;;;;;;;;;;;22.86;53.37;95509.56;5134074;27;1914;-57
2023/09/27 07:08:46;;;;;;;;;;;;;;;22.74;54.98;95508.66;5134283;27;1095;-57
2023/09/27 07:11:13;;;;;;;;;;;;;;;22.80;53.41;95515.91;5134140;27;1958;-57
2023/09/27 07:13:39;;;;;;;;;;;;;;;22.86;53.13;95508.72;5134203;28;1079;-57
2023/09/27 07:16:20;;;;;;;;;;;;;;;22.77;54.27;95516.38;5134266;28;1139;-57
2023/09/27 07:18:48;;;;;;;;;;;;;;;22.68;53.26;95524.03;5134305;28;1044;-57
2023/09/27 07:21:14;;;;;;;;;;;;;;;22.76;53.73;95504.63;5133379;28;1080;-57
2023/09/27 07:23:40;;;;;;;;;;;;;;;22.89;52.96;95520.00;5134437;28;987;-57
2023/09/27 07:26:06;;;;;;;;;;;;;;;22.93;52.60;95518.47;5134332;28;1914;-57
2023/09/27 07:28:32;;;;;;;;;;;;;;;22.83;53.61;95518.19;5133207;28;2536;-57
2023/09/27 07:30:58;;;;;;;;;;;;;;;22.88;53.24;95522.94;5133105;28;2927;-57
2023/09/27 07:33:25;;;;;;;;;;;;;;;23.19;53.74;95524.66;5133993;28;1067;-57
2023/09/27 07:35:52;;;;;;;;;;;;;;;23.48;52.18;95517.53;5134060;28;1039;-57
2023/09/27 07:38:18;;;;;;;;;;;;;;;23.80;51.43;95530.91;5115521;28;2842;-57
2023/09/27 07:40:48;;;;;;;;;;;;;;;24.12;49.70;95530.59;5113739;28;1024;-57
2023/09/27 07:43:15;;;;;;;;;;;;;;;24.21;48.96;95531.91;5116885;28;981;-57
2023/09/27 07:45:43;;;;;;;;;;;;;;;23.88;51.94;95524.28;5119059;27;2509;-57
2023/09/27 07:48:09;;;;;;;;;;;;;;;23.81;51.02;95521.66;5138391;27;1028;-57
2023/09/27 07:50:37;;;;;;;;;;;;;;;23.85;50.83;95522.03;5138083;27;1028;-57
2023/09/27 07:53:06;;;;;;;;;;;;;;;24.06;49.40;95523.34;5137880;27;1040;-57
2023/09/27 07:55:48;;;;;;;;;;;;;;;23.81;49.88;95512.63;5138139;27;1037;-57
2023/09/27 07:58:14;;;;;;;;;;;;;;;23.81;50.97;95518.09;5137776;27;1149;-57
2023/09/27 08:00:40;;;;;;;;;;;;;;;23.96;50.24;95519.31;5138177;27;1091;-57
2023/09/27 08:03:10;;;;;;;;;;;;;;;23.90;50.37;95514.81;5137800;27;1082;-57
2023/09/27 08:05:44;;;;;;;;;;;;;;;24.07;49.70;95525.00;5137469;27;2006;-57
2023/09/27 08:08:10;;;;;;;;;;;;;;;24.40;47.30;95529.03;5137865;27;991;-57
2023/09/27 08:10:43;;;;;;;;;;;;;;;24.24;48.31;95525.13;5137652;27;1040;-57
2023/09/27 08:13:10;;;;;;;;;;;;;;;24.07;48.80;95519.53;5137676;27;1114;-57
2023/09/27 08:15:36;;;;;;;;;;;;;;;24.09;48.03;95517.41;5137553;27;1041;-57
2023/09/27 08:18:02;;;;;;;;;;;;;;;24.03;47.97;95515.63;5137514;27;1127;-57
2023/09/27 08:20:28;;;;;;;;;;;;;;;23.73;47.53;95519.22;5137590;27;1004;-57
2023/09/27 08:22:54;;;;;;;;;;;;;;;23.63;48.42;95514.34;5137440;27;1091;-57
2023/09/27 08:25:20;;;;;;;;;;;;;;;23.76;49.06;95525.06;5137512;27;1996;-56
2023/09/27 08:27:50;;;;;;;;;;;;;;;24.02;46.96;95523.00;5137291;27;1052;-57
2023/09/27 08:30:16;;;;;;;;;;;;;;;24.53;48.35;95524.19;5137468;27;1052;-56
2023/09/27 08:32:42;;;;;;;;;;;;;;;25.18;47.47;95524.97;5137184;27;1064;-57
2023/09/27 08:35:09;;;;;;;;;;;;;;;25.63;44.72;95524.19;5137257;27;893;-56
2023/09/27 08:37:35;;;;;;;;;;;;;;;25.76;44.17;95514.00;5137444;27;1037;-56
2023/09/27 08:40:04;;;;;;;;;;;;;;;25.52;42.58;95525.91;5137044;27;1028;-56
2023/09/27 08:42:31;;;;;;;;;;;;;;;25.17;44.67;95526.03;5136932;27;1063;-57
2023/09/27 08:44:57;;;;;;;;;;;;;;;24.77;45.74;95517.84;5136964;27;1913;-57
2023/09/27 08:47:23;;;;;;;;;;;;;;;24.54;46.33;95512.19;5136799;27;991;-57
2023/09/27 08:49:50;;;;;;;;;;;;;;;25.02;45.71;95509.31;5136933;27;1059;-57
2023/09/27 08:52:16;;;;;;;;;;;;;;;25.44;46.82;95507.16;5136751;27;1099;-57
2023/09/27 08:54:43;;;;;;;;;;;;;;;25.63;44.61;95515.13;5136313;27;1043;-57
2023/09/27 08:57:10;;;;;;;;;;;;;;;25.87;42.88;95521.31;5136874;27;1030;-57
2023/09/27 08:59:38;;;;;;;;;;;;;;;25.75;44.23;95507.69;5121275;27;1157;-57
2023/09/27 09:02:05;;;;;;;;;;;;;;;25.99;42.49;95513.03;5116013;28;988;-57
2023/09/27 09:04:32;;;;;;;;;;;;;;;25.67;43.36;95516.31;5115708;28;1906;-57
2023/09/27 09:06:59;;;;;;;;;;;;;;;25.66;43.58;95520.94;5116234;28;1043;-56
2023/09/27 09:09:26;;;;;;;;;;;;;;;25.29;42.44;95523.31;5115894;28;1052;-57
2023/09/27 09:11:57;;;;;;;;;;;;;;;24.92;41.69;95527.19;5115949;28;1023;-57
2023/09/27 09:14:37;;;;;;;;;;;;;;;24.75;43.95;95501.69;5115734;28;1083;-57
2023/09/27 09:17:03;;;;;;;;;;;;;;;25.18;42.98;95507.75;5116099;28;991;-57
2023/09/27 09:19:31;;;;;;;;;;;;;;;25.12;41.02;95513.09;5115833;28;1048;-57
2023/09/27 09:22:15;;;;;;;;;;;;;;;25.13;41.63;95506.53;5115985;28;980;-58
2023/09/27 09:24:42;;;;;;;;;;;;;;;24.88;40.83;95503.31;5115689;28;1992;-58
2023/09/27 09:27:09;;;;;;;;;;;;;;;25.05;40.94;95506.94;5115489;28;1098;-58
2023/09/27 09:29:47;;;;;;;;;;;;;;;25.44;40.13;95500.84;5115512;28;1095;-58
2023/09/27 09:32:19;;;;;;;;;;;;;;;25.89;39.57;95502.72;5115552;28;1036;-56
2023/09/27 09:34:47;;;;;;;;;;;;;;;26.19;39.55;95505.13;5115685;28;998;-57
2023/09/27 09:37:23;;;;;;;;;;;;;;;25.69;38.87;95504.03;5115298;28;1052;-55
2023/09/27 09:39:50;;;;;;;;;;;;;;;25.45;38.78;95495.13;5115325;28;1091;-56
2023/09/27 09:42:34;;;;;;;;;;;;;;;25.94;39.65;95489.13;5115179;28;1102;-56
2023/09/27 09:45:05;;;;;;;;;;;;;;;26.18;39.00;95487.03;5115385;28;1997;-56
2023/09/27 09:47:32;;;;;;;;;;;;;;;26.29;38.43;95482.53;5115203;28;1001;-56
2023/09/27 09:49:58;;;;;;;;;;;;;;;26.38;37.56;95482.94;5115024;28;1036;-56
2023/09/27 09:52:26;;;;;;;;;;;;;;;26.38;37.02;95491.16;5114920;28;924;-56
2023/09/27 09:54:56;;;;;;;;;;;;;;;26.04;38.20;95491.19;5115244;28;961;-55
2023/09/27 09:57:23;;;;;;;;;;;;;;;25.69;39.39;95492.25;5114837;28;1033;-56
2023/09/27 09:59:59;;;;;;;;;;;;;;;25.81;36.51;95493.00;5132103;27;1157;-56
2023/09/27 10:02:27;;;;;;;;;;;;;;;25.92;37.83;95488.56;5135290;27;922;-56
2023/09/27 10:04:55;;;;;;;;;;;;;;;25.74;37.65;95475.91;5134672;27;1902;-55
2023/09/27 10:07:22;;;;;;;;;;;;;;;25.54;37.75;95478.31;5135094;27;999;-55
2023/09/27 10:09:49;;;;;;;;;;;;;;;25.73;37.82;95477.00;5135546;27;1042;-55
2023/09/27 10:12:17;;;;;;;;;;;;;;;26.01;38.59;95469.78;5135308;27;1035;-56
2023/09/27 10:14:44;;;;;;;;;;;;;;;26.39;37.46;95473.59;5135180;27;1048;-56
2023/09/27 10:17:23;;;;;;;;;;;;;;;26.62;36.92;95467.94;5135029;27;1048;-56
2023/09/27 10:20:12;;;;;;;;;;;;;;;26.70;37.01;95463.91;5135322;27;980;-56
2023/09/27 10:22:39;;;;;;;;;;;;;;;26.83;35.78;95462.72;5135054;27;1036;-55
2023/09/27 10:25:30;;;;;;;;;;;;;;;26.63;36.85;95455.06;5135508;27;1909;-56
2023/09/27 10:27:59;;;;;;;;;;;;;;;26.70;37.48;95452.13;5134955;27;1036;-56
2023/09/27 10:30:45;;;;;;;;;;;;;;;26.67;37.29;95456.19;5135033;27;969;-56
2023/09/27 10:33:14;;;;;;;;;;;;;;;26.70;37.38;95452.13;5120724;27;1523;-56
2023/09/27 10:35:44;;;;;;;;;;;;;;;26.69;36.61;95445.78;5134791;27;1095;-56
2023/09/27 10:38:10;;;;;;;;;;;;;;;26.44;36.21;95447.09;5134965;27;972;-54
2023/09/27 10:40:41;;;;;;;;;;;;;;;26.59;36.84;95441.03;5134972;27;1018;-56
2023/09/27 10:43:07;;;;;;;;;;;;;;;26.53;36.99;95443.94;5134948;27;1012;-56
2023/09/27 10:45:33;;;;;;;;;;;;;;;26.48;37.37;95437.31;5134494;27;1998;-56
2023/09/27 10:48:18;;;;;;;;;;;;;;;26.57;36.75;95439.59;5134713;27;1048;-55
2023/09/27 10:50:52;;;;;;;;;;;;;;;26.36;35.90;95433.84;5133194;27;2490;-55
2023/09/27 10:53:18;;;;;;;;;;;;;;;26.25;37.23;95438.34;5134466;27;1084;-56
2023/09/27 10:55:44;;;;;;;;;;;;;;;26.26;36.19;95426.31;5134549;27;1177;-56
2023/09/27 10:58:17;;;;;;;;;;;;;;;26.28;37.44;95426.88;5134636;27;1157;-56
2023/09/27 11:00:55;;;;;;;;;;;;;;;26.33;37.13;95404.19;5134813;27;975;-56
2023/09/27 11:03:23;;;;;;;;;;;;;;;26.49;36.84;95413.44;5134315;27;1106;-55
2023/09/27 11:05:50;;;;;;;;;;;;;;;26.45;36.84;95417.78;5134329;27;1910;-56
2023/09/27 11:08:20;;;;;;;;;;;;;;;26.39;38.34;95405.09;5134529;28;1003;-56
2023/09/27 11:10:46;;;;;;;;;;;;;;;26.40;37.98;95395.78;5134481;27;1051;-55
2023/09/27 11:13:12;;;;;;;;;;;;;;;26.52;38.73;95406.63;5134295;28;1056;-56
2023/09/27 11:15:39;;;;;;;;;;;;;;;26.08;36.88;95402.75;5134290;28;964;-55
2023/09/27 11:18:07;;;;;;;;;;;;;;;26.10;37.33;95402.50;5130081;27;2525;-55
2023/09/27 11:20:33;;;;;;;;;;;;;;;25.99;36.83;95403.44;5113684;28;1040;-55
2023/09/27 11:23:01;;;;;;;;;;;;;;;25.69;36.68;95401.91;5113671;28;1088;-55
2023/09/27 11:25:34;;;;;;;;;;;;;;;25.32;37.00;95397.72;5113821;28;1921;-55
2023/09/27 11:28:01;;;;;;;;;;;;;;;25.20;37.72;95388.75;5113699;28;1044;-55
2023/09/27 11:30:30;;;;;;;;;;;;;;;25.17;38.06;95391.97;5113767;28;980;-55
2023/09/27 11:32:56;;;;;;;;;;;;;;;25.34;38.28;95389.28;5113750;28;1036;-54
2023/09/27 11:35:26;;;;;;;;;;;;;;;25.39;37.90;95381.16;5113806;28;1063;-55
2023/09/27 11:38:11;;;;;;;;;;;;;;;25.70;38.28;95378.91;5113758;28;977;-55
2023/09/27 11:40:38;;;;;;;;;;;;;;;25.86;37.35;95389.00;5113880;28;1148;-54
2023/09/27 11:43:04;;;;;;;;;;;;;;;25.87;37.68;95390.66;5113557;28;996;-55
2023/09/27 11:45:42;;;;;;;;;;;;;;;25.97;36.88;95383.69;5113378;28;1897;-55
2023/09/27 11:48:09;;;;;;;;;;;;;;;25.95;36.81;95385.88;5128259;28;2595;-55
2023/09/27 11:50:35;;;;;;;;;;;;;;;25.83;37.30;95378.56;5134400;28;1047;-55
2023/09/27 11:53:01;;;;;;;;;;;;;;;25.89;36.28;95380.28;5133954;28;1099;-56
2023/09/27 11:55:27;;;;;;;;;;;;;;;26.03;37.18;95379.97;5132385;28;2500;-55
2023/09/27 11:57:56;;;;;;;;;;;;;;;26.07;36.61;95367.44;5133821;28;1223;-55
2023/09/27 12:00:22;;;;;;;;;;;;;;;26.19;37.20;95365.38;5134017;28;981;-55
2023/09/27 12:02:48;;;;;;;;;;;;;;;26.29;35.83;95367.41;5134008;28;1033;-55
2023/09/27 12:05:15;;;;;;;;;;;;;;;26.24;36.16;95372.84;5133923;28;1987;-55
2023/09/27 12:07:42;;;;;;;;;;;;;;;26.33;36.55;95373.22;5133807;28;1094;-55
2023/09/27 12:10:09;;;;;;;;;;;;;;;26.08;36.58;95355.38;5132378;28;2540;-55
2023/09/27 12:12:35;;;;;;;;;;;;;;;25.98;36.53;95368.94;5134058;28;1047;-56
2023/09/27 12:15:01;;;;;;;;;;;;;;;25.82;36.47;95365.09;5133957;28;1035;-55
2023/09/27 12:17:27;;;;;;;;;;;;;;;25.66;36.62;95364.88;5133629;28;1055;-55
2023/09/27 12:19:53;;;;;;;;;;;;;;;25.59;36.10;95356.03;5133709;27;1021;-55
2023/09/27 12:22:20;;;;;;;;;;;;;;;25.60;35.93;95354.94;5133889;28;1000;-55
2023/09/27 12:24:47;;;;;;;;;;;;;;;25.46;36.26;95356.34;5133542;28;1909;-55
2023/09/27 12:27:13;;;;;;;;;;;;;;;25.40;36.29;95355.47;5133738;28;1024;-55
2023/09/27 12:29:39;;;;;;;;;;;;;;;25.48;37.19;95340.53;5135613;27;1083;-55
2023/09/27 12:32:05;;;;;;;;;;;;;;;25.52;37.16;95347.97;5137573;27;1177;-55
2023/09/27 12:34:31;;;;;;;;;;;;;;;25.59;36.95;95345.09;5137380;27;1025;-55
2023/09/27 12:36:57;;;;;;;;;;;;;;;25.65;35.93;95345.97;5137841;27;973;-55
2023/09/27 12:39:23;;;;;;;;;;;;;;;25.74;35.61;95347.19;5136930;27;957;-55
2023/09/27 12:41:49;;;;;;;;;;;;;;;26.01;36.77;95335.53;5137323;27;1056;-55
2023/09/27 12:44:15;;;;;;;;;;;;;;;26.12;36.79;95336.50;5136933;27;1861;-55
2023/09/27 12:46:41;;;;;;;;;;;;;;;26.27;36.40;95328.47;5135648;27;2564;-55
2023/09/27 12:49:07;;;;;;;;;;;;;;;26.34;35.73;95344.75;5136909;27;1095;-55
2023/09/27 12:51:33;;;;;;;;;;;;;;;26.41;36.20;95348.94;5135230;27;2528;-55
2023/09/27 12:53:59;;;;;;;;;;;;;;;26.40;35.09;95338.22;5136788;27;1280;-55
2023/09/27 12:56:25;;;;;;;;;;;;;;;26.33;35.19;95354.03;5136755;27;1052;-55
2023/09/27 12:58:51;;;;;;;;;;;;;;;26.29;36.23;95338.13;5136648;27;1146;-56
2023/09/27 13:01:17;;;;;;;;;;;;;;;26.30;35.72;95344.41;5136836;27;1047;-56